Time,TemperatureF,DewpointF,PressureIn,WindDirection,WindDirectionDegrees,WindSpeedMPH,WindSpeedGustMPH,Humidity,HourlyPrecipIn,Conditions,Clouds,dailyrainin,SoftwareType,DateUTC
2013-04-19 00:01:00,52.3,48.9,30.17,South,173,5.0,5.0,88,0.00,,,0.00,Wunderground v.1.15,2013-04-19 04:01:00,
2013-04-19 00:02:00,52.3,48.9,30.17,SE,143,5.0,5.0,88,0.00,,,0.00,Wunderground v.1.15,2013-04-19 04:02:00,
2013-04-19 00:04:00,52.3,49.2,30.17,ESE,107,4.0,8.0,89,0.00,,,0.00,Wunderground v.1.15,2013-04-19 04:04:00,
2013-04-19 00:06:00,52.4,49.3,30.17,SSW,195,4.0,8.0,89,0.00,,,0.00,Wunderground v.1.15,2013-04-19 04:06:00,
2013-04-19 00:12:00,52.5,49.4,30.17,ESE,116,4.0,8.0,89,0.00,,,0.00,Wunderground v.1.15,2013-04-19 04:12:00,
2013-04-19 00:17:00,52.6,49.4,30.17,SE,134,4.0,8.0,89,0.00,,,0.00,Wunderground v.1.15,2013-04-19 04:17:00,
2013-04-19 00:23:00,52.7,49.8,30.16,ESE,118,5.0,15.0,90,0.00,,,0.00,Wunderground v.1.15,2013-04-19 04:23:00,
2013-04-19 00:28:00,52.8,49.6,30.16,ESE,119,4.0,15.0,89,0.00,,,0.00,Wunderground v.1.15,2013-04-19 04:28:00,
2013-04-19 00:33:00,52.9,50.0,30.16,ESE,105,4.0,6.0,90,0.00,,,0.00,Wunderground v.1.15,2013-04-19 04:33:00,
2013-04-19 00:39:00,53.0,50.1,30.16,SE,146,5.0,7.0,90,0.00,,,0.00,Wunderground v.1.15,2013-04-19 04:39:00,
2013-04-19 00:44:00,53.1,50.2,30.16,ENE,77,4.0,5.0,90,0.00,,,0.00,Wunderground v.1.15,2013-04-19 04:44:00,
2013-04-19 00:49:00,53.3,50.7,30.16,South,173,4.0,5.0,91,0.00,,,0.00,Wunderground v.1.15,2013-04-19 04:49:00,
2013-04-19 00:55:00,53.4,51.1,30.15,SSE,153,4.0,5.0,92,0.00,,,0.00,Wunderground v.1.15,2013-04-19 04:55:00,
2013-04-19 01:00:00,53.5,51.2,30.15,ESE,105,4.0,4.0,92,0.00,,,0.00,Wunderground v.1.15,2013-04-19 05:00:00,
2013-04-19 01:05:00,53.7,51.7,30.15,South,180,4.0,4.0,93,0.00,,,0.00,Wunderground v.1.15,2013-04-19 05:05:00,
2013-04-19 01:11:00,53.9,51.9,30.14,SSE,147,4.0,5.0,93,0.00,,,0.00,Wunderground v.1.15,2013-04-19 05:11:00,
2013-04-19 01:16:00,54.2,52.5,30.14,SE,137,4.0,8.0,94,0.00,,,0.00,Wunderground v.1.15,2013-04-19 05:16:00,
2013-04-19 01:22:00,54.4,52.7,30.14,ESE,119,4.0,11.0,94,0.00,,,0.00,Wunderground v.1.15,2013-04-19 05:22:00,
2013-04-19 01:27:00,54.6,52.9,30.14,ESE,114,5.0,11.0,94,0.00,,,0.00,Wunderground v.1.15,2013-04-19 05:27:00,
2013-04-19 01:33:00,54.8,53.1,30.13,ESE,106,6.0,11.0,94,0.00,,,0.00,Wunderground v.1.15,2013-04-19 05:33:00,
2013-04-19 01:39:00,54.9,53.2,30.13,SE,142,6.0,11.0,94,0.00,,,0.00,Wunderground v.1.15,2013-04-19 05:39:00,
2013-04-19 01:44:00,55.0,53.6,30.13,ESE,109,6.0,7.0,95,0.00,,,0.00,Wunderground v.1.15,2013-04-19 05:44:00,
2013-04-19 01:50:00,55.0,53.6,30.12,ESE,103,6.0,8.0,95,0.00,,,0.00,Wunderground v.1.15,2013-04-19 05:50:00,
2013-04-19 01:55:00,55.0,53.6,30.12,ESE,114,6.0,8.0,95,0.00,,,0.00,Wunderground v.1.15,2013-04-19 05:55:00,
2013-04-19 02:01:00,55.0,53.6,30.12,ESE,115,5.0,5.0,95,0.00,,,0.00,Wunderground v.1.15,2013-04-19 06:01:00,
2013-04-19 02:07:00,55.0,53.6,30.11,SE,132,5.0,10.0,95,0.00,,,0.00,Wunderground v.1.15,2013-04-19 06:07:00,
2013-04-19 02:12:00,54.9,53.5,30.11,SE,128,5.0,7.0,95,0.00,,,0.00,Wunderground v.1.15,2013-04-19 06:12:00,
2013-04-19 02:18:00,54.9,53.8,30.11,SSW,194,4.0,10.0,96,0.00,,,0.00,Wunderground v.1.15,2013-04-19 06:18:00,
2013-04-19 02:23:00,54.8,53.7,30.11,South,186,4.0,8.0,96,0.00,,,0.00,Wunderground v.1.15,2013-04-19 06:23:00,
2013-04-19 02:29:00,54.8,53.7,30.10,ESE,116,5.0,8.0,96,0.00,,,0.00,Wunderground v.1.15,2013-04-19 06:29:00,
2013-04-19 02:35:00,54.8,53.7,30.10,SE,140,4.0,5.0,96,0.00,,,0.00,Wunderground v.1.15,2013-04-19 06:35:00,
2013-04-19 02:40:00,54.8,53.7,30.10,SE,144,4.0,7.0,96,0.00,,,0.00,Wunderground v.1.15,2013-04-19 06:40:00,
2013-04-19 02:45:00,54.9,54.1,30.10,South,190,4.0,7.0,97,0.00,,,0.00,Wunderground v.1.15,2013-04-19 06:45:00,
2013-04-19 02:51:00,55.0,54.2,30.10,ESE,106,3.0,4.0,97,0.00,,,0.00,Wunderground v.1.15,2013-04-19 06:51:00,
2013-04-19 02:56:00,55.2,54.4,30.10,ESE,106,3.0,4.0,97,0.00,,,0.00,Wunderground v.1.15,2013-04-19 06:56:00,
2013-04-19 03:02:00,55.3,54.5,30.09,SE,136,3.0,4.0,97,0.00,,,0.00,Wunderground v.1.15,2013-04-19 07:02:00,
2013-04-19 03:07:00,55.4,54.6,30.09,SE,132,3.0,5.0,97,0.00,,,0.00,Wunderground v.1.15,2013-04-19 07:07:00,
2013-04-19 03:12:00,55.5,54.7,30.09,ESE,123,4.0,6.0,97,0.00,,,0.00,Wunderground v.1.15,2013-04-19 07:12:00,
2013-04-19 03:18:00,55.6,54.8,30.09,ESE,114,4.0,7.0,97,0.00,,,0.00,Wunderground v.1.15,2013-04-19 07:18:00,
2013-04-19 03:23:00,55.7,54.9,30.09,ESE,115,4.0,7.0,97,0.00,,,0.00,Wunderground v.1.15,2013-04-19 07:23:00,
2013-04-19 03:29:00,55.8,55.0,30.08,SSE,147,4.0,7.0,97,0.00,,,0.00,Wunderground v.1.15,2013-04-19 07:29:00,
2013-04-19 03:34:00,55.8,55.0,30.08,SE,128,4.0,9.0,97,0.00,,,0.00,Wunderground v.1.15,2013-04-19 07:34:00,
2013-04-19 03:39:00,55.9,55.1,30.08,ESE,111,4.0,9.0,97,0.00,,,0.00,Wunderground v.1.15,2013-04-19 07:39:00,
2013-04-19 03:45:00,56.0,55.2,30.08,SSE,157,4.0,5.0,97,0.00,,,0.00,Wunderground v.1.15,2013-04-19 07:45:00,
2013-04-19 03:50:00,56.1,55.3,30.08,SSE,158,4.0,8.0,97,0.00,,,0.00,Wunderground v.1.15,2013-04-19 07:50:00,
2013-04-19 03:56:00,56.1,55.0,30.08,SSE,165,4.0,8.0,96,0.00,,,0.00,Wunderground v.1.15,2013-04-19 07:56:00,
2013-04-19 04:01:00,56.1,55.0,30.08,SE,127,3.0,3.0,96,0.00,,,0.00,Wunderground v.1.15,2013-04-19 08:01:00,
2013-04-19 04:07:00,56.2,55.4,30.07,ESE,119,3.0,5.0,97,0.00,,,0.00,Wunderground v.1.15,2013-04-19 08:07:00,
2013-04-19 04:13:00,56.3,55.5,30.07,SE,144,3.0,6.0,97,0.00,,,0.00,Wunderground v.1.15,2013-04-19 08:13:00,
2013-04-19 04:18:00,56.4,55.3,30.08,ESE,111,3.0,7.0,96,0.00,,,0.00,Wunderground v.1.15,2013-04-19 08:18:00,
2013-04-19 04:24:00,56.4,55.3,30.07,SE,140,3.0,6.0,96,0.00,,,0.00,Wunderground v.1.15,2013-04-19 08:24:00,
2013-04-19 04:29:00,56.5,55.4,30.07,SE,129,3.0,6.0,96,0.00,,,0.00,Wunderground v.1.15,2013-04-19 08:29:00,
2013-04-19 04:34:00,56.5,55.4,30.07,ESE,122,4.0,4.0,96,0.00,,,0.00,Wunderground v.1.15,2013-04-19 08:34:00,
2013-04-19 04:40:00,56.4,55.3,30.07,ESE,117,3.0,3.0,96,0.00,,,0.00,Wunderground v.1.15,2013-04-19 08:40:00,
2013-04-19 04:45:00,56.4,55.3,30.07,SSE,157,3.0,5.0,96,0.00,,,0.00,Wunderground v.1.15,2013-04-19 08:45:00,
2013-04-19 04:51:00,56.6,55.5,30.06,SE,136,3.0,5.0,96,0.00,,,0.00,Wunderground v.1.15,2013-04-19 08:51:00,
2013-04-19 04:56:00,56.7,55.6,30.06,SSE,159,4.0,7.0,96,0.00,,,0.00,Wunderground v.1.15,2013-04-19 08:56:00,
2013-04-19 05:02:00,56.8,55.7,30.06,SSE,167,3.0,7.0,96,0.00,,,0.00,Wunderground v.1.15,2013-04-19 09:02:00,
2013-04-19 05:07:00,56.8,55.7,30.06,SW,215,3.0,7.0,96,0.00,,,0.00,Wunderground v.1.15,2013-04-19 09:07:00,
2013-04-19 05:12:00,56.9,55.8,30.06,SE,127,3.0,3.0,96,0.00,,,0.00,Wunderground v.1.15,2013-04-19 09:12:00,
2013-04-19 05:17:00,56.9,55.8,30.06,SSW,201,3.0,5.0,96,0.00,,,0.00,Wunderground v.1.15,2013-04-19 09:17:00,
2013-04-19 05:23:00,56.9,55.8,30.06,East,88,3.0,4.0,96,0.00,,,0.00,Wunderground v.1.15,2013-04-19 09:23:00,
2013-04-19 05:28:00,56.9,55.8,30.06,SE,125,3.0,6.0,96,0.00,,,0.00,Wunderground v.1.15,2013-04-19 09:28:00,
2013-04-19 05:33:00,57.0,55.9,30.06,ENE,69,3.0,3.0,96,0.00,,,0.00,Wunderground v.1.15,2013-04-19 09:33:00,
2013-04-19 05:39:00,57.1,56.0,30.05,SSE,161,3.0,5.0,96,0.00,,,0.00,Wunderground v.1.15,2013-04-19 09:39:00,
2013-04-19 05:44:00,57.1,56.0,30.05,SSW,203,3.0,5.0,96,0.00,,,0.00,Wunderground v.1.15,2013-04-19 09:44:00,
2013-04-19 05:50:00,57.4,56.3,30.05,SW,233,4.0,4.0,96,0.00,,,0.00,Wunderground v.1.15,2013-04-19 09:50:00,
2013-04-19 05:55:00,57.5,56.4,30.06,ESE,109,4.0,8.0,96,0.00,,,0.00,Wunderground v.1.15,2013-04-19 09:55:00,
2013-04-19 06:01:00,57.6,56.5,30.06,ESE,114,3.0,3.0,96,0.00,,,0.00,Wunderground v.1.15,2013-04-19 10:01:00,
2013-04-19 06:07:00,57.7,56.6,30.06,SE,134,3.0,8.0,96,0.00,,,0.00,Wunderground v.1.15,2013-04-19 10:07:00,
2013-04-19 06:12:00,57.8,56.7,30.06,South,181,4.0,5.0,96,0.00,,,0.00,Wunderground v.1.15,2013-04-19 10:12:00,
2013-04-19 06:18:00,58.1,57.3,30.06,WSW,250,3.0,7.0,97,0.00,,,0.00,Wunderground v.1.15,2013-04-19 10:18:00,
2013-04-19 06:23:00,58.4,57.6,30.06,SE,126,3.0,6.0,97,0.00,,,0.00,Wunderground v.1.15,2013-04-19 10:23:00,
2013-04-19 06:29:00,58.9,58.1,30.06,ESE,123,4.0,6.0,97,0.00,,,0.00,Wunderground v.1.15,2013-04-19 10:29:00,
2013-04-19 06:35:00,59.2,58.3,30.06,SSW,206,3.0,4.0,97,0.00,,,0.00,Wunderground v.1.15,2013-04-19 10:35:00,
2013-04-19 06:40:00,59.5,58.6,30.06,SSE,158,4.0,4.0,97,0.00,,,0.00,Wunderground v.1.15,2013-04-19 10:40:00,
2013-04-19 06:46:00,59.8,58.7,30.06,SE,134,4.0,8.0,96,0.00,,,0.00,Wunderground v.1.15,2013-04-19 10:46:00,
2013-04-19 06:51:00,60.1,59.2,30.05,SE,125,4.0,4.0,97,0.00,,,0.00,Wunderground v.1.15,2013-04-19 10:51:00,
2013-04-19 06:57:00,60.2,59.1,30.05,ESE,107,3.0,6.0,96,0.00,,,0.00,Wunderground v.1.15,2013-04-19 10:57:00,
2013-04-19 07:02:00,60.2,59.1,30.05,East,89,3.0,6.0,96,0.00,,,0.00,Wunderground v.1.15,2013-04-19 11:02:00,
2013-04-19 07:07:00,60.2,58.8,30.05,SE,127,4.0,6.0,95,0.00,,,0.00,Wunderground v.1.15,2013-04-19 11:07:00,
2013-04-19 07:13:00,60.1,58.7,30.04,SSE,167,3.0,7.0,95,0.00,,,0.00,Wunderground v.1.15,2013-04-19 11:13:00,
2013-04-19 07:18:00,60.0,58.6,30.04,South,173,3.0,7.0,95,0.00,,,0.00,Wunderground v.1.15,2013-04-19 11:18:00,
2013-04-19 07:24:00,60.1,58.7,30.04,SSW,194,2.0,4.0,95,0.00,,,0.00,Wunderground v.1.15,2013-04-19 11:24:00,
2013-04-19 07:29:00,60.2,58.8,30.04,SSW,208,3.0,4.0,95,0.00,,,0.00,Wunderground v.1.15,2013-04-19 11:29:00,
2013-04-19 07:34:00,60.1,58.4,30.05,SSW,194,3.0,3.0,94,0.00,,,0.00,Wunderground v.1.15,2013-04-19 11:34:00,
2013-04-19 07:40:00,60.1,58.7,30.05,South,174,2.0,3.0,95,0.00,,,0.00,Wunderground v.1.15,2013-04-19 11:40:00,
2013-04-19 07:45:00,60.3,58.9,30.05,South,183,3.0,3.0,95,0.00,,,0.00,Wunderground v.1.15,2013-04-19 11:45:00,
2013-04-19 07:50:00,60.5,59.4,30.05,South,180,3.0,3.0,96,0.00,,,0.00,Wunderground v.1.15,2013-04-19 11:50:00,
2013-04-19 07:56:00,60.9,59.8,30.04,South,184,3.0,6.0,96,0.00,,,0.00,Wunderground v.1.15,2013-04-19 11:56:00,
2013-04-19 08:01:00,61.1,60.0,30.04,SSW,207,3.0,4.0,96,0.00,,,0.00,Wunderground v.1.15,2013-04-19 12:01:00,
2013-04-19 08:07:00,61.2,59.8,30.04,WSW,249,2.0,5.0,95,0.00,,,0.00,Wunderground v.1.15,2013-04-19 12:07:00,
2013-04-19 08:13:00,61.1,59.7,30.04,SW,228,3.0,9.0,95,0.00,,,0.00,Wunderground v.1.15,2013-04-19 12:13:00,
2013-04-19 08:18:00,60.9,59.5,30.04,SW,216,3.0,9.0,95,0.00,,,0.00,Wunderground v.1.15,2013-04-19 12:18:00,
2013-04-19 08:23:00,60.9,59.5,30.03,SSW,209,2.0,4.0,95,0.00,,,0.00,Wunderground v.1.15,2013-04-19 12:23:00,
2013-04-19 08:29:00,61.2,60.1,30.03,ESE,117,2.0,4.0,96,0.00,,,0.00,Wunderground v.1.15,2013-04-19 12:29:00,
2013-04-19 08:34:00,61.7,60.5,30.03,SW,219,3.0,6.0,96,0.00,,,0.00,Wunderground v.1.15,2013-04-19 12:34:00,
2013-04-19 08:39:00,62.2,60.8,30.03,SW,219,4.0,7.0,95,0.00,,,0.00,Wunderground v.1.15,2013-04-19 12:39:00,
2013-04-19 08:45:00,62.5,61.0,30.03,SE,146,3.0,9.0,95,0.00,,,0.00,Wunderground v.1.15,2013-04-19 12:45:00,
2013-04-19 08:51:00,62.5,60.7,30.03,SSW,194,3.0,8.0,94,0.00,,,0.00,Wunderground v.1.15,2013-04-19 12:51:00,
2013-04-19 08:56:00,62.5,60.7,30.03,SW,221,3.0,8.0,94,0.00,,,0.00,Wunderground v.1.15,2013-04-19 12:56:00,
2013-04-19 09:02:00,62.3,60.2,30.03,South,175,4.0,9.0,93,0.00,,,0.00,Wunderground v.1.15,2013-04-19 13:02:00,
2013-04-19 09:07:00,62.0,60.3,30.03,SW,215,4.0,9.0,94,0.00,,,0.00,Wunderground v.1.15,2013-04-19 13:07:00,
2013-04-19 09:12:00,61.6,59.6,30.03,SW,232,3.0,4.0,93,0.00,,,0.00,Wunderground v.1.15,2013-04-19 13:12:00,
2013-04-19 09:18:00,61.1,59.1,30.03,SSW,199,3.0,6.0,93,0.00,,,0.00,Wunderground v.1.15,2013-04-19 13:18:00,
2013-04-19 09:23:00,60.6,58.6,30.03,SSW,196,4.0,5.0,93,0.00,,,0.00,Wunderground v.1.15,2013-04-19 13:23:00,
2013-04-19 09:29:00,60.2,58.5,30.03,SW,226,4.0,5.0,94,0.00,,,0.00,Wunderground v.1.15,2013-04-19 13:29:00,
2013-04-19 09:34:00,60.3,58.9,30.02,SSE,150,3.0,8.0,95,0.00,,,0.00,Wunderground v.1.15,2013-04-19 13:34:00,
2013-04-19 09:39:00,60.8,59.7,30.02,SSW,202,4.0,8.0,96,0.00,,,0.00,Wunderground v.1.15,2013-04-19 13:39:00,
2013-04-19 09:45:00,61.0,59.9,30.02,West,271,4.0,8.0,96,0.00,,,0.00,Wunderground v.1.15,2013-04-19 13:45:00,
2013-04-19 09:50:00,61.0,59.6,30.02,SW,217,4.0,4.0,95,0.00,,,0.00,Wunderground v.1.15,2013-04-19 13:50:00,
2013-04-19 09:55:00,61.0,59.6,30.03,SSE,165,4.0,5.0,95,0.00,,,0.00,Wunderground v.1.15,2013-04-19 13:55:00,
2013-04-19 10:02:00,61.0,59.6,30.02,SSW,205,4.0,5.0,95,0.00,,,0.00,Wunderground v.1.15,2013-04-19 14:02:00,
2013-04-19 10:07:00,61.2,59.8,30.01,WSW,245,4.0,10.0,95,0.00,,,0.00,Wunderground v.1.15,2013-04-19 14:07:00,
2013-04-19 10:12:00,61.5,60.1,30.01,SW,232,4.0,4.0,95,0.00,,,0.00,Wunderground v.1.15,2013-04-19 14:12:00,
2013-04-19 10:18:00,62.2,60.8,30.01,SSE,168,4.0,8.0,95,0.00,,,0.00,Wunderground v.1.15,2013-04-19 14:18:00,
2013-04-19 10:23:00,62.9,61.1,30.01,SSW,213,4.0,6.0,94,0.00,,,0.00,Wunderground v.1.15,2013-04-19 14:23:00,
2013-04-19 10:29:00,63.8,61.7,30.01,SW,236,4.0,7.0,93,0.00,,,0.00,Wunderground v.1.15,2013-04-19 14:29:00,
2013-04-19 10:35:00,64.8,62.1,30.01,SE,144,5.0,6.0,91,0.00,,,0.00,Wunderground v.1.15,2013-04-19 14:35:00,
2013-04-19 10:40:00,65.8,62.5,30.01,SW,227,5.0,5.0,89,0.00,,,0.00,Wunderground v.1.15,2013-04-19 14:40:00,
2013-04-19 10:46:00,66.7,63.0,30.01,SW,214,5.0,11.0,88,0.00,,,0.00,Wunderground v.1.15,2013-04-19 14:46:00,
2013-04-19 10:51:00,67.3,63.0,30.00,WSW,241,5.0,9.0,86,0.00,,,0.00,Wunderground v.1.15,2013-04-19 14:51:00,
2013-04-19 10:57:00,68.1,63.1,30.00,South,186,4.0,9.0,84,0.00,,,0.00,Wunderground v.1.15,2013-04-19 14:57:00,
2013-04-19 11:02:00,68.1,62.7,30.00,SSW,205,3.0,4.0,83,0.00,,,0.00,Wunderground v.1.15,2013-04-19 15:02:00,
2013-04-19 11:08:00,67.3,62.0,30.00,ESE,119,4.0,7.0,83,0.00,,,0.00,Wunderground v.1.15,2013-04-19 15:08:00,
2013-04-19 11:14:00,66.3,61.7,30.00,East,94,5.0,11.0,85,0.00,,,0.00,Wunderground v.1.15,2013-04-19 15:14:00,
2013-04-19 11:19:00,66.0,61.7,30.00,South,173,4.0,11.0,86,0.00,,,0.00,Wunderground v.1.15,2013-04-19 15:19:00,
2013-04-19 11:25:00,65.8,61.8,30.00,SE,141,4.0,6.0,87,0.00,,,0.00,Wunderground v.1.15,2013-04-19 15:25:00,
2013-04-19 11:31:00,65.8,61.5,29.99,SE,124,4.0,6.0,86,0.00,,,0.00,Wunderground v.1.15,2013-04-19 15:31:00,
2013-04-19 11:36:00,65.7,61.4,29.99,SSE,158,4.0,8.0,86,0.00,,,0.00,Wunderground v.1.15,2013-04-19 15:36:00,
2013-04-19 11:41:00,65.5,61.5,29.99,SE,143,5.0,9.0,87,0.00,,,0.00,Wunderground v.1.15,2013-04-19 15:41:00,
2013-04-19 11:47:00,65.6,61.6,29.99,WSW,248,4.0,9.0,87,0.00,,,0.00,Wunderground v.1.15,2013-04-19 15:47:00,
2013-04-19 11:52:00,65.9,61.6,29.99,South,188,5.0,7.0,86,0.00,,,0.00,Wunderground v.1.15,2013-04-19 15:52:00,
2013-04-19 11:58:00,65.9,61.6,29.99,SW,236,6.0,8.0,86,0.00,,,0.00,Wunderground v.1.15,2013-04-19 15:58:00,
2013-04-19 12:03:00,65.9,61.6,29.99,South,169,5.0,7.0,86,0.00,,,0.00,Wunderground v.1.15,2013-04-19 16:03:00,
2013-04-19 12:09:00,65.8,61.2,29.99,West,267,5.0,9.0,85,0.00,,,0.00,Wunderground v.1.15,2013-04-19 16:09:00,
2013-04-19 12:15:00,65.6,61.3,29.98,SW,224,5.0,10.0,86,0.00,,,0.00,Wunderground v.1.15,2013-04-19 16:15:00,
2013-04-19 12:20:00,65.3,61.0,29.98,SW,222,5.0,5.0,86,0.00,,,0.00,Wunderground v.1.15,2013-04-19 16:20:00,
2013-04-19 12:26:00,65.3,61.0,29.98,South,174,4.0,9.0,86,0.00,,,0.00,Wunderground v.1.15,2013-04-19 16:26:00,
2013-04-19 12:31:00,65.7,61.1,29.97,SW,219,4.0,4.0,85,0.00,,,0.00,Wunderground v.1.15,2013-04-19 16:31:00,
2013-04-19 12:36:00,66.1,61.1,29.98,SSW,193,5.0,12.0,84,0.00,,,0.00,Wunderground v.1.15,2013-04-19 16:36:00,
2013-04-19 12:42:00,66.6,61.3,29.97,West,277,5.0,10.0,83,0.00,,,0.00,Wunderground v.1.15,2013-04-19 16:42:00,
2013-04-19 12:47:00,67.3,61.6,29.97,West,271,4.0,10.0,82,0.00,,,0.00,Wunderground v.1.15,2013-04-19 16:47:00,
2013-04-19 12:53:00,67.5,61.8,29.97,South,188,4.0,6.0,82,0.00,,,0.00,Wunderground v.1.15,2013-04-19 16:53:00,
2013-04-19 12:58:00,67.4,61.4,29.97,West,271,4.0,6.0,81,0.00,,,0.00,Wunderground v.1.15,2013-04-19 16:58:00,
2013-04-19 13:03:00,67.6,62.3,29.96,WNW,302,5.0,6.0,83,0.00,,,0.00,Wunderground v.1.15,2013-04-19 17:03:00,
2013-04-19 13:08:00,68.3,62.6,29.96,SW,236,5.0,10.0,82,0.00,,,0.00,Wunderground v.1.15,2013-04-19 17:08:00,
2013-04-19 13:14:00,68.0,61.9,29.96,SW,224,6.0,10.0,81,0.00,,,0.00,Wunderground v.1.15,2013-04-19 17:14:00,
2013-04-19 13:19:00,67.2,61.2,29.96,WSW,240,7.0,10.0,81,0.00,,,0.00,Wunderground v.1.15,2013-04-19 17:19:00,
2013-04-19 13:24:00,67.3,62.0,29.96,SW,224,5.0,7.0,83,0.00,,,0.00,Wunderground v.1.15,2013-04-19 17:24:00,
2013-04-19 13:30:00,67.8,61.8,29.95,ESE,117,5.0,10.0,81,0.00,,,0.00,Wunderground v.1.15,2013-04-19 17:30:00,
2013-04-19 13:36:00,68.0,62.3,29.95,ESE,104,5.0,10.0,82,0.00,,,0.00,Wunderground v.1.15,2013-04-19 17:36:00,
2013-04-19 13:42:00,68.2,62.5,29.94,WSW,240,4.0,8.0,82,0.00,,,0.00,Wunderground v.1.15,2013-04-19 17:42:00,
2013-04-19 13:47:00,67.5,61.8,29.94,NNW,338,5.0,9.0,82,0.00,,,0.00,Wunderground v.1.15,2013-04-19 17:47:00,
2013-04-19 13:53:00,67.0,61.7,29.94,SE,133,6.0,9.0,83,0.00,,,0.00,Wunderground v.1.15,2013-04-19 17:53:00,
2013-04-19 13:58:00,66.8,61.8,29.94,SSW,200,6.0,11.0,84,0.00,,,0.00,Wunderground v.1.15,2013-04-19 17:58:00,
2013-04-19 14:03:00,67.7,62.7,29.93,SW,216,6.0,9.0,84,0.00,,,0.00,Wunderground v.1.15,2013-04-19 18:03:00,
2013-04-19 14:09:00,68.3,62.9,29.93,South,174,5.0,9.0,83,0.00,,,0.00,Wunderground v.1.15,2013-04-19 18:09:00,
2013-04-19 14:15:00,68.7,63.0,29.93,West,259,4.0,7.0,82,0.00,,,0.00,Wunderground v.1.15,2013-04-19 18:15:00,
2013-04-19 14:20:00,69.0,62.9,29.93,SSW,205,4.0,4.0,81,0.00,,,0.00,Wunderground v.1.15,2013-04-19 18:20:00,
2013-04-19 14:26:00,69.5,62.7,29.93,WSW,250,5.0,8.0,79,0.00,,,0.00,Wunderground v.1.15,2013-04-19 18:26:00,
2013-04-19 14:31:00,69.7,62.9,29.92,SSE,152,5.0,7.0,79,0.00,,,0.00,Wunderground v.1.15,2013-04-19 18:31:00,
2013-04-19 14:36:00,69.5,62.0,29.92,South,191,5.0,7.0,77,0.00,,,0.00,Wunderground v.1.15,2013-04-19 18:36:00,
2013-04-19 14:42:00,68.7,61.6,29.93,WSW,250,5.0,9.0,78,0.00,,,0.00,Wunderground v.1.15,2013-04-19 18:42:00,
2013-04-19 14:47:00,67.7,61.3,29.92,SSW,196,6.0,9.0,80,0.00,,,0.00,Wunderground v.1.15,2013-04-19 18:47:00,
2013-04-19 14:53:00,67.2,61.2,29.92,SW,221,6.0,7.0,81,0.00,,,0.00,Wunderground v.1.15,2013-04-19 18:53:00,
2013-04-19 14:58:00,67.4,61.0,29.92,South,169,5.0,7.0,80,0.00,,,0.00,Wunderground v.1.15,2013-04-19 18:58:00,
2013-04-19 15:03:00,67.3,60.9,29.92,SW,215,5.0,5.0,80,0.00,,,0.00,Wunderground v.1.15,2013-04-19 19:03:00,
2013-04-19 15:09:00,67.6,61.2,29.91,SSW,207,5.0,8.0,80,0.00,,,0.00,Wunderground v.1.15,2013-04-19 19:09:00,
2013-04-19 15:14:00,67.6,61.2,29.91,ESE,121,5.0,20.0,80,0.00,,,0.00,Wunderground v.1.15,2013-04-19 19:14:00,
2013-04-19 15:19:00,66.8,61.1,29.91,SW,235,6.0,20.0,82,0.00,,,0.00,Wunderground v.1.15,2013-04-19 19:19:00,
2013-04-19 15:25:00,66.5,61.2,29.91,SSE,152,6.0,12.0,83,0.00,,,0.00,Wunderground v.1.15,2013-04-19 19:25:00,
2013-04-19 15:31:00,66.6,61.3,29.90,South,190,5.0,11.0,83,0.00,,,0.00,Wunderground v.1.15,2013-04-19 19:31:00,
2013-04-19 15:36:00,66.7,61.7,29.90,SSE,158,5.0,11.0,84,0.00,,,0.00,Wunderground v.1.15,2013-04-19 19:36:00,
2013-04-19 15:41:00,67.1,61.8,29.89,SE,140,5.0,5.0,83,0.00,,,0.00,Wunderground v.1.15,2013-04-19 19:41:00,
2013-04-19 15:46:00,67.6,62.3,29.89,East,84,5.0,6.0,83,0.00,,,0.00,Wunderground v.1.15,2013-04-19 19:46:00,
2013-04-19 15:52:00,68.2,62.5,29.89,SSE,151,4.0,5.0,82,0.00,,,0.00,Wunderground v.1.15,2013-04-19 19:52:00,
2013-04-19 15:57:00,68.2,62.1,29.89,SSW,198,4.0,6.0,81,0.00,,,0.00,Wunderground v.1.15,2013-04-19 19:57:00,
2013-04-19 16:03:00,67.5,62.2,29.89,SSE,165,5.0,8.0,83,0.00,,,0.00,Wunderground v.1.15,2013-04-19 20:03:00,
2013-04-19 16:09:00,66.7,61.7,29.89,South,181,6.0,12.0,84,0.00,,,0.00,Wunderground v.1.15,2013-04-19 20:09:00,
2013-04-19 16:14:00,66.4,61.8,29.87,SSW,197,5.0,11.0,85,0.00,,,0.00,Wunderground v.1.15,2013-04-19 20:14:00,
2013-04-19 16:20:00,66.4,61.8,29.88,WNW,295,5.0,5.0,85,0.00,,,0.00,Wunderground v.1.15,2013-04-19 20:20:00,
2013-04-19 16:25:00,66.5,61.5,29.88,SSW,202,6.0,12.0,84,0.00,,,0.00,Wunderground v.1.15,2013-04-19 20:25:00,
2013-04-19 16:30:00,66.6,61.3,29.87,SSE,163,6.0,10.0,83,0.00,,,0.00,Wunderground v.1.15,2013-04-19 20:30:00,
2013-04-19 16:35:00,67.0,62.0,29.87,SSE,159,6.0,10.0,84,0.00,,,0.00,Wunderground v.1.15,2013-04-19 20:35:00,
2013-04-19 16:41:00,67.4,62.1,29.86,WSW,251,5.0,5.0,83,0.00,,,0.00,Wunderground v.1.15,2013-04-19 20:41:00,
2013-04-19 16:47:00,67.7,62.0,29.87,South,180,5.0,11.0,82,0.00,,,0.00,Wunderground v.1.15,2013-04-19 20:47:00,
2013-04-19 16:52:00,67.5,62.2,29.87,SE,124,5.0,8.0,83,0.00,,,0.00,Wunderground v.1.15,2013-04-19 20:52:00,
2013-04-19 16:57:00,67.4,62.4,29.86,East,101,4.0,9.0,84,0.00,,,0.00,Wunderground v.1.15,2013-04-19 20:57:00,
2013-04-19 17:03:00,67.4,62.4,29.86,SE,126,4.0,15.0,84,0.00,,,0.00,Wunderground v.1.15,2013-04-19 21:03:00,
2013-04-19 17:09:00,67.1,62.1,29.86,SW,236,6.0,15.0,84,0.00,,,0.00,Wunderground v.1.15,2013-04-19 21:09:00,
2013-04-19 17:15:00,66.9,62.2,29.86,South,183,5.0,8.0,85,0.00,,,0.00,Wunderground v.1.15,2013-04-19 21:15:00,
2013-04-19 17:20:00,66.6,61.9,29.86,South,182,5.0,5.0,85,0.00,,,0.00,Wunderground v.1.15,2013-04-19 21:20:00,
2013-04-19 17:25:00,66.2,61.9,29.86,SSW,212,6.0,6.0,86,0.00,,,0.00,Wunderground v.1.15,2013-04-19 21:25:00,
2013-04-19 17:31:00,65.7,62.0,29.86,South,186,5.0,9.0,88,0.00,,,0.00,Wunderground v.1.15,2013-04-19 21:31:00,
2013-04-19 17:36:00,65.3,61.7,29.85,East,97,5.0,9.0,88,0.00,,,0.00,Wunderground v.1.15,2013-04-19 21:36:00,
2013-04-19 17:41:00,65.1,61.5,29.85,SSW,198,5.0,5.0,88,0.00,,,0.00,Wunderground v.1.15,2013-04-19 21:41:00,
2013-04-19 17:47:00,64.8,61.5,29.85,SSE,161,5.0,11.0,89,0.00,,,0.00,Wunderground v.1.15,2013-04-19 21:47:00,
2013-04-19 17:52:00,64.6,61.6,29.85,SSW,206,6.0,6.0,90,0.00,,,0.00,Wunderground v.1.15,2013-04-19 21:52:00,
2013-04-19 17:58:00,64.3,61.6,29.85,South,181,7.0,10.0,91,0.00,,,0.00,Wunderground v.1.15,2013-04-19 21:58:00,
2013-04-19 18:03:00,63.9,61.5,29.84,SE,145,6.0,9.0,92,0.00,,,0.00,Wunderground v.1.15,2013-04-19 22:03:00,
2013-04-19 18:09:00,63.6,61.5,29.84,SSE,152,6.0,9.0,93,0.00,,,0.00,Wunderground v.1.15,2013-04-19 22:09:00,
2013-04-19 18:15:00,63.4,61.6,29.84,SSW,196,6.0,10.0,94,0.00,,,0.00,Wunderground v.1.15,2013-04-19 22:15:00,
2013-04-19 18:20:00,63.4,61.6,29.83,SW,219,6.0,7.0,94,0.00,,,0.00,Wunderground v.1.15,2013-04-19 22:20:00,
2013-04-19 18:26:00,63.3,61.5,29.83,SSW,196,5.0,13.0,94,0.00,,,0.00,Wunderground v.1.15,2013-04-19 22:26:00,
2013-04-19 18:32:00,63.2,61.1,29.83,SSE,164,5.0,10.0,93,0.00,,,0.00,Wunderground v.1.15,2013-04-19 22:32:00,
2013-04-19 18:38:00,63.1,61.0,29.83,SSW,198,6.0,10.0,93,0.00,,,0.00,Wunderground v.1.15,2013-04-19 22:38:00,
2013-04-19 18:43:00,63.0,60.9,29.83,SE,144,6.0,10.0,93,0.00,,,0.00,Wunderground v.1.15,2013-04-19 22:43:00,
2013-04-19 18:48:00,63.1,61.0,29.83,ESE,114,6.0,15.0,93,0.00,,,0.00,Wunderground v.1.15,2013-04-19 22:48:00,
2013-04-19 18:54:00,63.1,61.0,29.82,SE,128,6.0,13.0,93,0.00,,,0.00,Wunderground v.1.15,2013-04-19 22:54:00,
2013-04-19 18:59:00,63.1,61.0,29.83,ESE,119,6.0,21.0,93,0.00,,,0.01,Wunderground v.1.15,2013-04-19 22:59:00,
2013-04-19 19:05:00,63.1,61.0,29.83,SE,134,6.0,13.0,93,0.00,,,0.01,Wunderground v.1.15,2013-04-19 23:05:00,
2013-04-19 19:10:00,62.9,60.5,29.83,South,184,5.0,8.0,92,0.00,,,0.01,Wunderground v.1.15,2013-04-19 23:10:00,
2013-04-19 19:16:00,62.7,60.3,29.83,SW,234,6.0,12.0,92,0.00,,,0.01,Wunderground v.1.15,2013-04-19 23:16:00,
2013-04-19 19:21:00,62.6,60.2,29.83,ESE,105,6.0,10.0,92,0.00,,,0.01,Wunderground v.1.15,2013-04-19 23:21:00,
2013-04-19 19:27:00,62.5,60.1,29.83,West,280,5.0,13.0,92,0.00,,,0.01,Wunderground v.1.15,2013-04-19 23:27:00,
2013-04-19 19:33:00,62.4,60.0,29.83,SSE,167,5.0,13.0,92,0.00,,,0.01,Wunderground v.1.15,2013-04-19 23:33:00,
2013-04-19 19:38:00,62.6,60.5,29.83,ESE,123,6.0,16.0,93,0.00,,,0.01,Wunderground v.1.15,2013-04-19 23:38:00,
2013-04-19 19:44:00,62.7,60.3,29.82,South,188,6.0,6.0,92,0.00,,,0.01,Wunderground v.1.15,2013-04-19 23:44:00,
2013-04-19 19:49:00,62.7,60.3,29.83,SSW,194,5.0,11.0,92,0.00,,,0.01,Wunderground v.1.15,2013-04-19 23:49:00,
2013-04-19 19:55:00,62.8,60.7,29.82,WNW,302,5.0,11.0,93,0.00,,,0.01,Wunderground v.1.15,2013-04-19 23:55:00,
2013-04-19 20:00:00,62.9,60.8,29.82,South,191,6.0,11.0,93,0.00,,,0.01,Wunderground v.1.15,2013-04-20 00:00:00,
2013-04-19 20:05:00,63.0,60.9,29.83,SE,140,6.0,13.0,93,0.00,,,0.01,Wunderground v.1.15,2013-04-20 00:05:00,
2013-04-19 20:10:00,62.9,60.8,29.83,SSE,149,6.0,6.0,93,0.00,,,0.01,Wunderground v.1.15,2013-04-20 00:10:00,
2013-04-19 20:16:00,62.8,60.7,29.82,South,175,6.0,12.0,93,0.00,,,0.01,Wunderground v.1.15,2013-04-20 00:16:00,
2013-04-19 20:21:00,62.7,60.6,29.82,ESE,108,6.0,7.0,93,0.00,,,0.01,Wunderground v.1.15,2013-04-20 00:21:00,
2013-04-19 20:27:00,62.6,60.8,29.83,South,175,6.0,15.0,94,0.00,,,0.01,Wunderground v.1.15,2013-04-20 00:27:00,
2013-04-19 20:32:00,62.9,61.4,29.82,SSE,151,7.0,9.0,95,0.00,,,0.01,Wunderground v.1.15,2013-04-20 00:32:00,
2013-04-19 20:37:00,63.2,61.4,29.82,SSE,148,7.0,9.0,94,0.00,,,0.01,Wunderground v.1.15,2013-04-20 00:37:00,
2013-04-19 20:43:00,63.7,62.2,29.82,ESE,110,6.0,12.0,95,0.00,,,0.01,Wunderground v.1.15,2013-04-20 00:43:00,
2013-04-19 20:48:00,64.0,62.2,29.81,SSE,158,7.0,17.0,94,0.00,,,0.01,Wunderground v.1.15,2013-04-20 00:48:00,
2013-04-19 20:54:00,64.3,62.5,29.81,WSW,243,8.0,15.0,94,0.00,,,0.01,Wunderground v.1.15,2013-04-20 00:54:00,
2013-04-19 20:59:00,64.4,62.3,29.81,WSW,246,7.0,16.0,93,0.00,,,0.01,Wunderground v.1.15,2013-04-20 00:59:00,
2013-04-19 21:04:00,64.5,62.7,29.81,ESE,115,7.0,9.0,94,0.00,,,0.01,Wunderground v.1.15,2013-04-20 01:04:00,
2013-04-19 21:09:00,64.5,62.4,29.81,SE,135,8.0,9.0,93,0.00,,,0.01,Wunderground v.1.15,2013-04-20 01:09:00,
2013-04-19 21:15:00,64.5,62.4,29.80,ESE,123,8.0,13.0,93,0.00,,,0.01,Wunderground v.1.15,2013-04-20 01:15:00,
2013-04-19 21:20:00,64.3,62.2,29.80,WSW,238,8.0,8.0,93,0.00,,,0.01,Wunderground v.1.15,2013-04-20 01:20:00,
2013-04-19 21:26:00,64.0,61.9,29.79,ESE,111,7.0,11.0,93,0.00,,,0.01,Wunderground v.1.15,2013-04-20 01:26:00,
2013-04-19 21:31:00,63.9,61.8,29.80,SSW,197,6.0,7.0,93,0.00,,,0.01,Wunderground v.1.15,2013-04-20 01:31:00,
2013-04-19 21:36:00,63.7,61.6,29.80,ESE,107,8.0,21.0,93,0.00,,,0.01,Wunderground v.1.15,2013-04-20 01:36:00,
2013-04-19 21:42:00,63.6,61.5,29.80,SE,145,8.0,12.0,93,0.00,,,0.01,Wunderground v.1.15,2013-04-20 01:42:00,
2013-04-19 21:47:00,63.7,61.9,29.79,WSW,238,7.0,12.0,94,0.00,,,0.01,Wunderground v.1.15,2013-04-20 01:47:00,
2013-04-19 21:53:00,64.1,62.3,29.80,SSW,202,8.0,8.0,94,0.00,,,0.01,Wunderground v.1.15,2013-04-20 01:53:00,
2013-04-19 21:58:00,64.1,62.3,29.79,SSW,208,8.0,19.0,94,0.00,,,0.01,Wunderground v.1.15,2013-04-20 01:58:00,
2013-04-19 22:03:00,64.2,62.4,29.79,SSW,201,7.0,16.0,94,0.00,,,0.01,Wunderground v.1.15,2013-04-20 02:03:00,
2013-04-19 22:09:00,64.7,62.9,29.80,South,170,7.0,16.0,94,0.00,,,0.01,Wunderground v.1.15,2013-04-20 02:09:00,
2013-04-19 22:14:00,64.9,63.1,29.79,East,82,8.0,13.0,94,0.00,,,0.01,Wunderground v.1.15,2013-04-20 02:14:00,
2013-04-19 22:20:00,65.0,63.2,29.79,SE,131,8.0,8.0,94,0.00,,,0.01,Wunderground v.1.15,2013-04-20 02:20:00,
2013-04-19 22:25:00,65.1,63.0,29.79,SE,128,8.0,13.0,93,0.00,,,0.01,Wunderground v.1.15,2013-04-20 02:25:00,
2013-04-19 22:31:00,65.1,63.0,29.79,SSE,163,8.0,15.0,93,0.00,,,0.01,Wunderground v.1.15,2013-04-20 02:31:00,
2013-04-19 22:36:00,65.1,63.0,29.78,SE,146,8.0,15.0,93,0.00,,,0.01,Wunderground v.1.15,2013-04-20 02:36:00,
2013-04-19 22:41:00,65.1,63.0,29.78,SSE,157,8.0,8.0,93,0.00,,,0.01,Wunderground v.1.15,2013-04-20 02:41:00,
2013-04-19 22:47:00,65.1,63.0,29.78,SSW,211,7.0,25.0,93,0.00,,,0.01,Wunderground v.1.15,2013-04-20 02:47:00,
2013-04-19 22:52:00,65.2,63.1,29.77,WSW,254,7.0,11.0,93,0.00,,,0.01,Wunderground v.1.15,2013-04-20 02:52:00,
2013-04-19 22:57:00,65.3,63.2,29.77,SSE,165,7.0,18.0,93,0.00,,,0.01,Wunderground v.1.15,2013-04-20 02:57:00,
2013-04-19 23:03:00,65.5,63.7,29.77,SE,142,8.0,13.0,94,0.00,,,0.01,Wunderground v.1.15,2013-04-20 03:03:00,
2013-04-19 23:09:00,65.7,63.6,29.77,WSW,252,8.0,18.0,93,0.00,,,0.01,Wunderground v.1.15,2013-04-20 03:09:00,
2013-04-19 23:15:00,65.7,63.6,29.76,SE,134,8.0,11.0,93,0.00,,,0.01,Wunderground v.1.15,2013-04-20 03:15:00,
2013-04-19 23:20:00,65.6,63.5,29.76,SW,215,8.0,8.0,93,0.00,,,0.01,Wunderground v.1.15,2013-04-20 03:20:00,
2013-04-19 23:26:00,65.6,63.5,29.76,ESE,107,9.0,12.0,93,0.00,,,0.01,Wunderground v.1.15,2013-04-20 03:26:00,
2013-04-19 23:31:00,65.5,63.1,29.75,South,188,9.0,9.0,92,0.00,,,0.01,Wunderground v.1.15,2013-04-20 03:31:00,
2013-04-19 23:36:00,65.4,63.3,29.76,East,97,9.0,11.0,93,0.00,,,0.01,Wunderground v.1.15,2013-04-20 03:36:00,
2013-04-19 23:42:00,65.4,63.3,29.76,South,186,9.0,17.0,93,0.00,,,0.01,Wunderground v.1.15,2013-04-20 03:42:00,
2013-04-19 23:47:00,65.4,63.3,29.75,West,278,9.0,18.0,93,0.00,,,0.01,Wunderground v.1.15,2013-04-20 03:47:00,
2013-04-19 23:53:00,65.3,63.2,29.76,SSW,208,10.0,10.0,93,0.00,,,0.01,Wunderground v.1.15,2013-04-20 03:53:00,
2013-04-19 23:58:00,65.4,63.3,29.75,SW,227,9.0,12.0,93,0.00,,,0.01,Wunderground v.1.15,2013-04-20 03:58:00,